sensor_id;sensor_type;location;lat;lon;timestamp;temperature;humidity
33655;DHT22;19997;51.274;22.506;2023-05-07T00:01:58;7.80;99.90
33655;DHT22;19997;51.274;22.506;2023-05-07T00:04:26;7.80;99.90
33655;DHT22;19997;51.274;22.506;2023-05-07T00:06:53;7.80;99.90
33655;DHT22;19997;51.274;22.506;2023-05-07T00:09:21;7.80;99.90
33655;DHT22;19997;51.274;22.506;2023-05-07T00:11:48;7.80;99.90
33655;DHT22;19997;51.274;22.506;2023-05-07T00:14:15;7.80;99.90
33655;DHT22;19997;51.274;22.506;2023-05-07T00:16:42;7.80;99.90
33655;DHT22;19997;51.274;22.506;2023-05-07T00:19:09;7.80;99.90
33655;DHT22;19997;51.274;22.506;2023-05-07T00:21:37;7.80;99.90
33655;DHT22;19997;51.274;22.506;2023-05-07T00:24:05;7.80;99.90
33655;DHT22;19997;51.274;22.506;2023-05-07T00:26:32;7.80;99.90
33655;DHT22;19997;51.274;22.506;2023-05-07T00:28:59;7.80;99.90
33655;DHT22;19997;51.274;22.506;2023-05-07T00:31:26;7.70;99.90
33655;DHT22;19997;51.274;22.506;2023-05-07T00:33:53;7.80;99.90
33655;DHT22;19997;51.274;22.506;2023-05-07T00:36:20;7.80;99.90
33655;DHT22;19997;51.274;22.506;2023-05-07T00:38:48;7.80;99.90
33655;DHT22;19997;51.274;22.506;2023-05-07T00:41:15;7.70;99.90
33655;DHT22;19997;51.274;22.506;2023-05-07T00:43:43;7.70;99.90
33655;DHT22;19997;51.274;22.506;2023-05-07T00:46:10;7.70;99.90
33655;DHT22;19997;51.274;22.506;2023-05-07T00:48:37;7.70;99.90
33655;DHT22;19997;51.274;22.506;2023-05-07T00:51:05;7.70;99.90
33655;DHT22;19997;51.274;22.506;2023-05-07T00:53:32;7.70;99.90
33655;DHT22;19997;51.274;22.506;2023-05-07T00:56:01;7.70;99.90
33655;DHT22;19997;51.274;22.506;2023-05-07T00:58:28;7.70;99.90
33655;DHT22;19997;51.274;22.506;2023-05-07T01:00:56;7.70;99.90
33655;DHT22;19997;51.274;22.506;2023-05-07T01:03:23;7.70;99.90
33655;DHT22;19997;51.274;22.506;2023-05-07T01:05:52;7.70;99.90
33655;DHT22;19997;51.274;22.506;2023-05-07T01:08:20;7.70;99.90
33655;DHT22;19997;51.274;22.506;2023-05-07T01:10:50;7.70;99.90
33655;DHT22;19997;51.274;22.506;2023-05-07T01:13:19;7.70;99.90
33655;DHT22;19997;51.274;22.506;2023-05-07T01:15:47;7.70;99.90
33655;DHT22;19997;51.274;22.506;2023-05-07T01:18:14;7.70;99.90
33655;DHT22;19997;51.274;22.506;2023-05-07T01:20:41;7.70;99.90
33655;DHT22;19997;51.274;22.506;2023-05-07T01:23:11;7.70;99.90
33655;DHT22;19997;51.274;22.506;2023-05-07T01:25:38;7.70;99.90
33655;DHT22;19997;51.274;22.506;2023-05-07T01:28:05;7.70;99.90
33655;DHT22;19997;51.274;22.506;2023-05-07T01:30:36;7.70;99.90
33655;DHT22;19997;51.274;22.506;2023-05-07T01:33:09;7.60;99.90
33655;DHT22;19997;51.274;22.506;2023-05-07T01:35:41;7.60;99.90
33655;DHT22;19997;51.274;22.506;2023-05-07T01:38:13;7.60;99.90
33655;DHT22;19997;51.274;22.506;2023-05-07T01:40:40;7.60;99.90
33655;DHT22;19997;51.274;22.506;2023-05-07T01:43:08;7.60;99.90
33655;DHT22;19997;51.274;22.506;2023-05-07T01:45:37;7.60;99.90
33655;DHT22;19997;51.274;22.506;2023-05-07T01:48:05;7.60;99.90
33655;DHT22;19997;51.274;22.506;2023-05-07T01:50:32;7.60;99.90
33655;DHT22;19997;51.274;22.506;2023-05-07T01:53:01;7.60;99.90
33655;DHT22;19997;51.274;22.506;2023-05-07T01:55:30;7.60;99.90
33655;DHT22;19997;51.274;22.506;2023-05-07T01:57:58;7.60;99.90
33655;DHT22;19997;51.274;22.506;2023-05-07T02:00:25;7.60;99.90
33655;DHT22;19997;51.274;22.506;2023-05-07T02:02:52;7.60;99.90
33655;DHT22;19997;51.274;22.506;2023-05-07T02:05:28;7.60;99.90
33655;DHT22;19997;51.274;22.506;2023-05-07T02:08:01;7.60;99.90
33655;DHT22;19997;51.274;22.506;2023-05-07T02:10:31;7.60;99.90
33655;DHT22;19997;51.274;22.506;2023-05-07T02:12:58;7.60;99.90
33655;DHT22;19997;51.274;22.506;2023-05-07T02:15:27;7.60;99.90
33655;DHT22;19997;51.274;22.506;2023-05-07T02:18:00;7.60;99.90
33655;DHT22;19997;51.274;22.506;2023-05-07T02:20:27;7.50;99.90
33655;DHT22;19997;51.274;22.506;2023-05-07T02:22:54;7.50;99.90
33655;DHT22;19997;51.274;22.506;2023-05-07T02:25:21;7.60;99.90
33655;DHT22;19997;51.274;22.506;2023-05-07T02:27:50;7.50;99.90
33655;DHT22;19997;51.274;22.506;2023-05-07T02:30:19;7.50;99.90
33655;DHT22;19997;51.274;22.506;2023-05-07T02:32:47;7.50;99.90
33655;DHT22;19997;51.274;22.506;2023-05-07T02:35:14;7.60;99.90
33655;DHT22;19997;51.274;22.506;2023-05-07T02:37:42;7.50;99.90
33655;DHT22;19997;51.274;22.506;2023-05-07T02:40:10;7.50;99.90
33655;DHT22;19997;51.274;22.506;2023-05-07T02:42:38;7.50;99.90
33655;DHT22;19997;51.274;22.506;2023-05-07T02:45:07;7.50;99.90
33655;DHT22;19997;51.274;22.506;2023-05-07T02:47:35;7.50;99.90
33655;DHT22;19997;51.274;22.506;2023-05-07T02:50:04;7.50;99.90
33655;DHT22;19997;51.274;22.506;2023-05-07T02:52:31;7.50;99.90
33655;DHT22;19997;51.274;22.506;2023-05-07T02:54:58;7.50;99.90
33655;DHT22;19997;51.274;22.506;2023-05-07T02:57:25;7.50;99.90
33655;DHT22;19997;51.274;22.506;2023-05-07T02:59:52;7.50;99.90
33655;DHT22;19997;51.274;22.506;2023-05-07T03:02:22;7.50;99.90
33655;DHT22;19997;51.274;22.506;2023-05-07T03:04:50;7.50;99.90
33655;DHT22;19997;51.274;22.506;2023-05-07T03:07:18;7.50;99.90
33655;DHT22;19997;51.274;22.506;2023-05-07T03:09:45;7.50;99.90
33655;DHT22;19997;51.274;22.506;2023-05-07T03:12:12;7.50;99.90
33655;DHT22;19997;51.274;22.506;2023-05-07T03:14:39;7.50;99.90
33655;DHT22;19997;51.274;22.506;2023-05-07T03:17:06;7.50;99.90
33655;DHT22;19997;51.274;22.506;2023-05-07T03:19:35;7.50;99.90
33655;DHT22;19997;51.274;22.506;2023-05-07T03:22:03;7.40;99.90
33655;DHT22;19997;51.274;22.506;2023-05-07T03:24:30;7.50;99.90
33655;DHT22;19997;51.274;22.506;2023-05-07T03:26:57;7.50;99.90
33655;DHT22;19997;51.274;22.506;2023-05-07T03:29:24;7.50;99.90
33655;DHT22;19997;51.274;22.506;2023-05-07T03:31:51;7.50;99.90
33655;DHT22;19997;51.274;22.506;2023-05-07T03:34:18;7.50;99.90
33655;DHT22;19997;51.274;22.506;2023-05-07T03:36:49;7.40;99.90
33655;DHT22;19997;51.274;22.506;2023-05-07T03:39:17;7.50;99.90
33655;DHT22;19997;51.274;22.506;2023-05-07T03:41:44;7.50;99.90
33655;DHT22;19997;51.274;22.506;2023-05-07T03:44:11;7.50;99.90
33655;DHT22;19997;51.274;22.506;2023-05-07T03:46:38;7.50;99.90
33655;DHT22;19997;51.274;22.506;2023-05-07T03:49:07;7.50;99.90
33655;DHT22;19997;51.274;22.506;2023-05-07T03:51:34;7.50;99.90
33655;DHT22;19997;51.274;22.506;2023-05-07T03:54:05;7.50;99.90
33655;DHT22;19997;51.274;22.506;2023-05-07T03:56:33;7.40;99.90
33655;DHT22;19997;51.274;22.506;2023-05-07T03:59:00;7.50;99.90
33655;DHT22;19997;51.274;22.506;2023-05-07T04:01:28;7.40;99.90
33655;DHT22;19997;51.274;22.506;2023-05-07T04:03:55;7.40;99.90
33655;DHT22;19997;51.274;22.506;2023-05-07T04:06:23;7.40;99.90
33655;DHT22;19997;51.274;22.506;2023-05-07T04:08:51;7.40;99.90
33655;DHT22;19997;51.274;22.506;2023-05-07T04:11:19;7.40;99.90
33655;DHT22;19997;51.274;22.506;2023-05-07T04:13:46;7.40;99.90
33655;DHT22;19997;51.274;22.506;2023-05-07T04:16:17;7.40;99.90
33655;DHT22;19997;51.274;22.506;2023-05-07T04:18:44;7.40;99.90
33655;DHT22;19997;51.274;22.506;2023-05-07T04:21:15;7.40;99.90
33655;DHT22;19997;51.274;22.506;2023-05-07T04:23:43;7.40;99.90
33655;DHT22;19997;51.274;22.506;2023-05-07T04:26:11;7.40;99.90
33655;DHT22;19997;51.274;22.506;2023-05-07T04:28:43;7.40;99.90
33655;DHT22;19997;51.274;22.506;2023-05-07T04:31:11;7.40;99.90
33655;DHT22;19997;51.274;22.506;2023-05-07T04:33:39;7.40;99.90
33655;DHT22;19997;51.274;22.506;2023-05-07T04:36:10;7.40;99.90
33655;DHT22;19997;51.274;22.506;2023-05-07T04:38:44;7.40;99.90
33655;DHT22;19997;51.274;22.506;2023-05-07T04:41:13;7.50;99.90
33655;DHT22;19997;51.274;22.506;2023-05-07T04:43:40;7.50;99.90
33655;DHT22;19997;51.274;22.506;2023-05-07T04:46:11;7.50;99.90
33655;DHT22;19997;51.274;22.506;2023-05-07T04:48:39;7.50;99.90
33655;DHT22;19997;51.274;22.506;2023-05-07T04:51:07;7.40;99.90
33655;DHT22;19997;51.274;22.506;2023-05-07T04:53:34;7.40;99.90
33655;DHT22;19997;51.274;22.506;2023-05-07T04:56:01;7.50;99.90
33655;DHT22;19997;51.274;22.506;2023-05-07T04:58:38;7.50;99.90
33655;DHT22;19997;51.274;22.506;2023-05-07T05:01:05;7.50;99.90
33655;DHT22;19997;51.274;22.506;2023-05-07T05:03:34;7.50;99.90
33655;DHT22;19997;51.274;22.506;2023-05-07T05:06:01;7.50;99.90
33655;DHT22;19997;51.274;22.506;2023-05-07T05:08:32;7.50;99.90
33655;DHT22;19997;51.274;22.506;2023-05-07T05:11:01;7.50;99.90
33655;DHT22;19997;51.274;22.506;2023-05-07T05:13:29;7.50;99.90
33655;DHT22;19997;51.274;22.506;2023-05-07T05:15:57;7.50;99.90
33655;DHT22;19997;51.274;22.506;2023-05-07T05:18:26;7.50;99.90
33655;DHT22;19997;51.274;22.506;2023-05-07T05:20:55;7.40;99.90
33655;DHT22;19997;51.274;22.506;2023-05-07T05:23:23;7.50;99.90
33655;DHT22;19997;51.274;22.506;2023-05-07T05:25:50;7.50;99.90
33655;DHT22;19997;51.274;22.506;2023-05-07T05:28:22;7.50;99.90
33655;DHT22;19997;51.274;22.506;2023-05-07T05:30:49;7.50;99.90
33655;DHT22;19997;51.274;22.506;2023-05-07T05:33:17;7.50;99.90
33655;DHT22;19997;51.274;22.506;2023-05-07T05:35:44;7.50;99.90
33655;DHT22;19997;51.274;22.506;2023-05-07T05:38:13;7.50;99.90
33655;DHT22;19997;51.274;22.506;2023-05-07T05:40:41;7.50;99.90
33655;DHT22;19997;51.274;22.506;2023-05-07T05:43:08;7.50;99.90
33655;DHT22;19997;51.274;22.506;2023-05-07T05:45:36;7.50;99.90
33655;DHT22;19997;51.274;22.506;2023-05-07T05:48:04;7.50;99.90
33655;DHT22;19997;51.274;22.506;2023-05-07T05:50:32;7.60;99.90
33655;DHT22;19997;51.274;22.506;2023-05-07T05:53:01;7.60;99.90
33655;DHT22;19997;51.274;22.506;2023-05-07T05:55:30;7.60;99.90
33655;DHT22;19997;51.274;22.506;2023-05-07T05:57:58;7.60;99.90
33655;DHT22;19997;51.274;22.506;2023-05-07T06:00:26;7.60;99.90
33655;DHT22;19997;51.274;22.506;2023-05-07T06:03:01;7.60;99.90
33655;DHT22;19997;51.274;22.506;2023-05-07T06:05:28;7.60;99.90
33655;DHT22;19997;51.274;22.506;2023-05-07T06:07:56;7.70;99.90
33655;DHT22;19997;51.274;22.506;2023-05-07T06:10:24;7.70;99.90
33655;DHT22;19997;51.274;22.506;2023-05-07T06:12:55;7.70;99.90
33655;DHT22;19997;51.274;22.506;2023-05-07T06:15:22;7.70;99.90
33655;DHT22;19997;51.274;22.506;2023-05-07T06:17:50;7.70;99.90
33655;DHT22;19997;51.274;22.506;2023-05-07T06:20:17;7.70;99.90
33655;DHT22;19997;51.274;22.506;2023-05-07T06:22:44;7.80;99.90
33655;DHT22;19997;51.274;22.506;2023-05-07T06:25:13;7.80;99.90
33655;DHT22;19997;51.274;22.506;2023-05-07T06:27:42;7.80;99.90
33655;DHT22;19997;51.274;22.506;2023-05-07T06:30:12;7.80;99.90
33655;DHT22;19997;51.274;22.506;2023-05-07T06:32:40;7.90;99.90
33655;DHT22;19997;51.274;22.506;2023-05-07T06:35:08;7.90;99.90
33655;DHT22;19997;51.274;22.506;2023-05-07T06:37:37;7.90;99.90
33655;DHT22;19997;51.274;22.506;2023-05-07T06:40:07;7.90;99.90
33655;DHT22;19997;51.274;22.506;2023-05-07T06:42:37;8.00;99.90
33655;DHT22;19997;51.274;22.506;2023-05-07T06:45:34;8.00;99.90
33655;DHT22;19997;51.274;22.506;2023-05-07T06:48:02;8.00;99.90
33655;DHT22;19997;51.274;22.506;2023-05-07T06:50:33;8.10;99.90
33655;DHT22;19997;51.274;22.506;2023-05-07T06:53:02;8.00;99.90
33655;DHT22;19997;51.274;22.506;2023-05-07T06:55:32;8.00;99.90
33655;DHT22;19997;51.274;22.506;2023-05-07T06:58:00;8.10;99.90
33655;DHT22;19997;51.274;22.506;2023-05-07T07:00:28;8.10;99.90
33655;DHT22;19997;51.274;22.506;2023-05-07T07:02:58;8.10;99.90
33655;DHT22;19997;51.274;22.506;2023-05-07T07:05:27;8.20;99.90
33655;DHT22;19997;51.274;22.506;2023-05-07T07:07:56;8.30;99.90
33655;DHT22;19997;51.274;22.506;2023-05-07T07:10:23;8.30;99.90
33655;DHT22;19997;51.274;22.506;2023-05-07T07:12:52;8.40;99.90
33655;DHT22;19997;51.274;22.506;2023-05-07T07:15:20;8.40;99.90
33655;DHT22;19997;51.274;22.506;2023-05-07T07:17:49;8.50;99.90
33655;DHT22;19997;51.274;22.506;2023-05-07T07:20:17;8.50;99.90
33655;DHT22;19997;51.274;22.506;2023-05-07T07:22:46;8.50;99.90
33655;DHT22;19997;51.274;22.506;2023-05-07T07:25:15;8.50;99.90
33655;DHT22;19997;51.274;22.506;2023-05-07T07:27:42;8.40;99.90
33655;DHT22;19997;51.274;22.506;2023-05-07T07:30:10;8.40;99.90
33655;DHT22;19997;51.274;22.506;2023-05-07T07:32:40;8.50;99.90
33655;DHT22;19997;51.274;22.506;2023-05-07T07:35:08;8.50;99.90
33655;DHT22;19997;51.274;22.506;2023-05-07T07:37:38;8.50;99.90
33655;DHT22;19997;51.274;22.506;2023-05-07T07:40:06;8.50;99.90
33655;DHT22;19997;51.274;22.506;2023-05-07T07:42:34;8.50;99.90
33655;DHT22;19997;51.274;22.506;2023-05-07T07:45:02;8.60;99.90
33655;DHT22;19997;51.274;22.506;2023-05-07T07:47:32;8.60;99.90
33655;DHT22;19997;51.274;22.506;2023-05-07T07:50:00;8.60;99.80
33655;DHT22;19997;51.274;22.506;2023-05-07T07:52:27;8.70;99.60
33655;DHT22;19997;51.274;22.506;2023-05-07T07:54:56;8.70;99.50
33655;DHT22;19997;51.274;22.506;2023-05-07T07:57:23;8.70;99.20
33655;DHT22;19997;51.274;22.506;2023-05-07T07:59:50;8.70;99.00
33655;DHT22;19997;51.274;22.506;2023-05-07T08:02:18;8.70;98.90
33655;DHT22;19997;51.274;22.506;2023-05-07T08:04:46;8.70;99.00
33655;DHT22;19997;51.274;22.506;2023-05-07T08:07:13;8.70;98.90
33655;DHT22;19997;51.274;22.506;2023-05-07T08:09:47;8.60;98.70
33655;DHT22;19997;51.274;22.506;2023-05-07T08:12:17;8.60;98.80
33655;DHT22;19997;51.274;22.506;2023-05-07T08:14:44;8.70;98.90
33655;DHT22;19997;51.274;22.506;2023-05-07T08:17:12;8.70;99.00
33655;DHT22;19997;51.274;22.506;2023-05-07T08:19:42;8.70;98.90
33655;DHT22;19997;51.274;22.506;2023-05-07T08:22:11;8.70;99.00
33655;DHT22;19997;51.274;22.506;2023-05-07T08:24:38;8.70;98.90
33655;DHT22;19997;51.274;22.506;2023-05-07T08:27:06;8.70;98.90
33655;DHT22;19997;51.274;22.506;2023-05-07T08:29:34;8.70;99.10
33655;DHT22;19997;51.274;22.506;2023-05-07T08:32:02;8.70;99.00
33655;DHT22;19997;51.274;22.506;2023-05-07T08:34:29;8.80;98.90
33655;DHT22;19997;51.274;22.506;2023-05-07T08:36:58;8.80;98.90
33655;DHT22;19997;51.274;22.506;2023-05-07T08:39:25;8.80;98.90
33655;DHT22;19997;51.274;22.506;2023-05-07T08:41:55;8.80;98.90
33655;DHT22;19997;51.274;22.506;2023-05-07T08:44:25;8.90;98.80
33655;DHT22;19997;51.274;22.506;2023-05-07T08:46:56;9.00;98.60
33655;DHT22;19997;51.274;22.506;2023-05-07T08:49:26;9.00;98.10
33655;DHT22;19997;51.274;22.506;2023-05-07T08:51:54;9.00;98.00
33655;DHT22;19997;51.274;22.506;2023-05-07T08:54:22;9.00;97.80
33655;DHT22;19997;51.274;22.506;2023-05-07T08:56:50;9.00;97.80
33655;DHT22;19997;51.274;22.506;2023-05-07T08:59:17;9.00;97.90
33655;DHT22;19997;51.274;22.506;2023-05-07T09:01:44;9.00;98.20
33655;DHT22;19997;51.274;22.506;2023-05-07T09:04:13;9.00;98.30
33655;DHT22;19997;51.274;22.506;2023-05-07T09:06:41;9.10;98.50
33655;DHT22;19997;51.274;22.506;2023-05-07T09:09:14;9.10;98.40
33655;DHT22;19997;51.274;22.506;2023-05-07T09:11:41;9.10;98.30
33655;DHT22;19997;51.274;22.506;2023-05-07T09:14:10;9.10;98.20
33655;DHT22;19997;51.274;22.506;2023-05-07T09:16:40;9.00;98.10
33655;DHT22;19997;51.274;22.506;2023-05-07T09:19:08;9.00;98.10
33655;DHT22;19997;51.274;22.506;2023-05-07T09:21:37;9.00;98.20
33655;DHT22;19997;51.274;22.506;2023-05-07T09:24:08;9.00;98.20
33655;DHT22;19997;51.274;22.506;2023-05-07T09:26:39;9.00;98.30
33655;DHT22;19997;51.274;22.506;2023-05-07T09:29:08;9.10;98.40
33655;DHT22;19997;51.274;22.506;2023-05-07T09:31:37;9.10;98.20
33655;DHT22;19997;51.274;22.506;2023-05-07T09:34:05;9.10;98.10
33655;DHT22;19997;51.274;22.506;2023-05-07T09:36:37;9.10;98.00
33655;DHT22;19997;51.274;22.506;2023-05-07T09:39:04;9.10;97.80
33655;DHT22;19997;51.274;22.506;2023-05-07T09:41:31;9.10;97.60
33655;DHT22;19997;51.274;22.506;2023-05-07T09:44:28;9.10;97.50
33655;DHT22;19997;51.274;22.506;2023-05-07T09:46:56;9.10;97.40
33655;DHT22;19997;51.274;22.506;2023-05-07T09:49:34;9.10;97.30
33655;DHT22;19997;51.274;22.506;2023-05-07T09:52:06;9.10;97.30
33655;DHT22;19997;51.274;22.506;2023-05-07T09:54:38;9.10;97.40
33655;DHT22;19997;51.274;22.506;2023-05-07T09:57:07;9.20;97.40
33655;DHT22;19997;51.274;22.506;2023-05-07T09:59:37;9.30;97.20
33655;DHT22;19997;51.274;22.506;2023-05-07T10:02:09;9.40;97.00
33655;DHT22;19997;51.274;22.506;2023-05-07T10:04:44;9.50;96.80
33655;DHT22;19997;51.274;22.506;2023-05-07T10:07:16;9.50;96.20
33655;DHT22;19997;51.274;22.506;2023-05-07T10:09:45;9.50;95.50
33655;DHT22;19997;51.274;22.506;2023-05-07T10:12:22;9.50;95.10
33655;DHT22;19997;51.274;22.506;2023-05-07T10:14:50;9.60;94.90
33655;DHT22;19997;51.274;22.506;2023-05-07T10:17:20;9.50;94.50
33655;DHT22;19997;51.274;22.506;2023-05-07T10:19:49;9.50;94.20
33655;DHT22;19997;51.274;22.506;2023-05-07T10:22:20;9.50;93.90
33655;DHT22;19997;51.274;22.506;2023-05-07T10:24:49;9.60;93.80
33655;DHT22;19997;51.274;22.506;2023-05-07T10:27:20;9.60;93.60
33655;DHT22;19997;51.274;22.506;2023-05-07T10:30:00;9.60;93.50
33655;DHT22;19997;51.274;22.506;2023-05-07T10:32:39;9.60;93.20
33655;DHT22;19997;51.274;22.506;2023-05-07T10:35:14;9.60;93.10
33655;DHT22;19997;51.274;22.506;2023-05-07T10:37:45;9.60;93.00
33655;DHT22;19997;51.274;22.506;2023-05-07T10:40:13;9.60;92.80
33655;DHT22;19997;51.274;22.506;2023-05-07T10:42:53;9.60;92.80
33655;DHT22;19997;51.274;22.506;2023-05-07T10:45:23;9.60;92.80
33655;DHT22;19997;51.274;22.506;2023-05-07T10:48:10;9.60;92.70
33655;DHT22;19997;51.274;22.506;2023-05-07T10:50:38;9.60;92.60
33655;DHT22;19997;51.274;22.506;2023-05-07T10:53:24;9.60;92.40
33655;DHT22;19997;51.274;22.506;2023-05-07T10:56:28;9.60;92.30
33655;DHT22;19997;51.274;22.506;2023-05-07T10:59:35;9.70;92.10
33655;DHT22;19997;51.274;22.506;2023-05-07T11:02:17;9.70;91.90
33655;DHT22;19997;51.274;22.506;2023-05-07T11:05:19;9.80;91.70
33655;DHT22;19997;51.274;22.506;2023-05-07T11:07:54;9.80;91.60
33655;DHT22;19997;51.274;22.506;2023-05-07T11:10:48;9.90;91.50
33655;DHT22;19997;51.274;22.506;2023-05-07T11:13:43;9.80;91.30
33655;DHT22;19997;51.274;22.506;2023-05-07T11:16:17;9.90;91.10
33655;DHT22;19997;51.274;22.506;2023-05-07T11:18:47;9.80;90.80
33655;DHT22;19997;51.274;22.506;2023-05-07T11:21:33;9.80;90.70
33655;DHT22;19997;51.274;22.506;2023-05-07T11:24:23;9.80;90.60
33655;DHT22;19997;51.274;22.506;2023-05-07T11:26:59;9.90;90.40
33655;DHT22;19997;51.274;22.506;2023-05-07T11:29:28;9.80;90.50
33655;DHT22;19997;51.274;22.506;2023-05-07T11:32:03;9.90;90.20
33655;DHT22;19997;51.274;22.506;2023-05-07T11:34:37;9.90;90.20
33655;DHT22;19997;51.274;22.506;2023-05-07T11:37:05;9.90;90.00
33655;DHT22;19997;51.274;22.506;2023-05-07T11:40:03;9.90;90.10
33655;DHT22;19997;51.274;22.506;2023-05-07T11:42:34;9.80;90.00
33655;DHT22;19997;51.274;22.506;2023-05-07T11:45:02;9.80;90.00
33655;DHT22;19997;51.274;22.506;2023-05-07T11:47:30;9.80;90.10
33655;DHT22;19997;51.274;22.506;2023-05-07T11:50:02;9.80;90.10
33655;DHT22;19997;51.274;22.506;2023-05-07T11:52:30;9.90;89.80
33655;DHT22;19997;51.274;22.506;2023-05-07T11:54:58;9.90;89.70
33655;DHT22;19997;51.274;22.506;2023-05-07T11:57:27;9.90;89.70
33655;DHT22;19997;51.274;22.506;2023-05-07T11:59:56;9.90;89.20
33655;DHT22;19997;51.274;22.506;2023-05-07T12:02:24;9.90;88.80
33655;DHT22;19997;51.274;22.506;2023-05-07T12:04:51;9.80;88.70
33655;DHT22;19997;51.274;22.506;2023-05-07T12:07:19;9.70;88.80
33655;DHT22;19997;51.274;22.506;2023-05-07T12:09:46;9.70;89.10
33655;DHT22;19997;51.274;22.506;2023-05-07T12:12:14;9.70;89.20
33655;DHT22;19997;51.274;22.506;2023-05-07T12:14:43;9.70;89.20
33655;DHT22;19997;51.274;22.506;2023-05-07T12:17:13;9.70;89.10
33655;DHT22;19997;51.274;22.506;2023-05-07T12:19:43;9.70;89.00
33655;DHT22;19997;51.274;22.506;2023-05-07T12:22:12;9.70;89.10
33655;DHT22;19997;51.274;22.506;2023-05-07T12:24:46;9.70;89.00
33655;DHT22;19997;51.274;22.506;2023-05-07T12:27:14;9.80;88.60
33655;DHT22;19997;51.274;22.506;2023-05-07T12:29:44;9.80;88.40
33655;DHT22;19997;51.274;22.506;2023-05-07T12:32:14;9.90;88.40
33655;DHT22;19997;51.274;22.506;2023-05-07T12:34:42;10.00;88.40
33655;DHT22;19997;51.274;22.506;2023-05-07T12:37:09;10.00;88.00
33655;DHT22;19997;51.274;22.506;2023-05-07T12:39:36;10.00;87.60
33655;DHT22;19997;51.274;22.506;2023-05-07T12:42:03;10.10;87.50
33655;DHT22;19997;51.274;22.506;2023-05-07T12:44:32;10.00;87.40
33655;DHT22;19997;51.274;22.506;2023-05-07T12:47:02;10.10;87.30
33655;DHT22;19997;51.274;22.506;2023-05-07T12:49:30;10.00;86.80
33655;DHT22;19997;51.274;22.506;2023-05-07T12:51:58;10.10;86.70
33655;DHT22;19997;51.274;22.506;2023-05-07T12:54:29;10.10;86.40
33655;DHT22;19997;51.274;22.506;2023-05-07T12:57:01;10.10;86.30
33655;DHT22;19997;51.274;22.506;2023-05-07T12:59:32;10.10;86.30
33655;DHT22;19997;51.274;22.506;2023-05-07T13:01:59;10.10;86.40
33655;DHT22;19997;51.274;22.506;2023-05-07T13:04:27;10.10;86.20
33655;DHT22;19997;51.274;22.506;2023-05-07T13:06:55;10.10;85.80
33655;DHT22;19997;51.274;22.506;2023-05-07T13:09:22;10.10;85.70
33655;DHT22;19997;51.274;22.506;2023-05-07T13:11:49;10.10;85.70
33655;DHT22;19997;51.274;22.506;2023-05-07T13:14:16;10.00;85.40
33655;DHT22;19997;51.274;22.506;2023-05-07T13:16:46;10.00;85.30
33655;DHT22;19997;51.274;22.506;2023-05-07T13:19:13;10.00;85.60
33655;DHT22;19997;51.274;22.506;2023-05-07T13:21:40;10.00;85.60
33655;DHT22;19997;51.274;22.506;2023-05-07T13:24:09;9.90;85.50
33655;DHT22;19997;51.274;22.506;2023-05-07T13:26:36;9.90;85.40
33655;DHT22;19997;51.274;22.506;2023-05-07T13:29:03;9.90;85.30
33655;DHT22;19997;51.274;22.506;2023-05-07T13:31:30;9.90;85.40
33655;DHT22;19997;51.274;22.506;2023-05-07T13:33:58;9.90;85.40
33655;DHT22;19997;51.274;22.506;2023-05-07T13:36:25;9.90;85.60
33655;DHT22;19997;51.274;22.506;2023-05-07T13:38:52;9.90;85.80
33655;DHT22;19997;51.274;22.506;2023-05-07T13:41:20;9.90;85.70
33655;DHT22;19997;51.274;22.506;2023-05-07T13:43:48;9.90;85.70
33655;DHT22;19997;51.274;22.506;2023-05-07T13:46:15;9.90;85.80
33655;DHT22;19997;51.274;22.506;2023-05-07T13:48:42;10.00;85.90
33655;DHT22;19997;51.274;22.506;2023-05-07T13:51:09;9.90;85.90
33655;DHT22;19997;51.274;22.506;2023-05-07T13:53:36;9.90;85.90
33655;DHT22;19997;51.274;22.506;2023-05-07T13:56:04;9.90;85.80
33655;DHT22;19997;51.274;22.506;2023-05-07T13:58:32;10.00;85.90
33655;DHT22;19997;51.274;22.506;2023-05-07T14:01:00;9.90;85.60
33655;DHT22;19997;51.274;22.506;2023-05-07T14:03:27;9.90;85.60
33655;DHT22;19997;51.274;22.506;2023-05-07T14:05:57;9.90;85.80
33655;DHT22;19997;51.274;22.506;2023-05-07T14:08:26;9.90;85.80
33655;DHT22;19997;51.274;22.506;2023-05-07T14:10:53;10.00;85.80
33655;DHT22;19997;51.274;22.506;2023-05-07T14:13:20;10.10;85.80
33655;DHT22;19997;51.274;22.506;2023-05-07T14:15:48;10.10;85.60
33655;DHT22;19997;51.274;22.506;2023-05-07T14:18:15;10.00;85.50
33655;DHT22;19997;51.274;22.506;2023-05-07T14:20:43;10.00;85.80
33655;DHT22;19997;51.274;22.506;2023-05-07T14:23:12;10.00;85.60
33655;DHT22;19997;51.274;22.506;2023-05-07T14:25:39;10.00;85.70
33655;DHT22;19997;51.274;22.506;2023-05-07T14:28:09;10.10;85.80
33655;DHT22;19997;51.274;22.506;2023-05-07T14:30:36;10.10;85.50
33655;DHT22;19997;51.274;22.506;2023-05-07T14:33:04;10.20;85.20
33655;DHT22;19997;51.274;22.506;2023-05-07T14:35:31;10.20;85.00
33655;DHT22;19997;51.274;22.506;2023-05-07T14:37:58;10.20;84.70
33655;DHT22;19997;51.274;22.506;2023-05-07T14:40:25;10.10;84.70
33655;DHT22;19997;51.274;22.506;2023-05-07T14:42:52;10.10;84.80
33655;DHT22;19997;51.274;22.506;2023-05-07T14:45:21;10.10;85.00
33655;DHT22;19997;51.274;22.506;2023-05-07T14:47:48;10.10;85.10
33655;DHT22;19997;51.274;22.506;2023-05-07T14:50:19;10.10;84.90
33655;DHT22;19997;51.274;22.506;2023-05-07T14:52:47;10.10;85.00
33655;DHT22;19997;51.274;22.506;2023-05-07T14:55:17;10.00;85.00
33655;DHT22;19997;51.274;22.506;2023-05-07T14:57:46;10.00;85.10
33655;DHT22;19997;51.274;22.506;2023-05-07T15:00:14;10.00;85.20
33655;DHT22;19997;51.274;22.506;2023-05-07T15:02:43;10.00;85.10
33655;DHT22;19997;51.274;22.506;2023-05-07T15:05:11;10.00;85.10
33655;DHT22;19997;51.274;22.506;2023-05-07T15:07:42;10.10;85.30
33655;DHT22;19997;51.274;22.506;2023-05-07T15:10:10;10.10;85.20
33655;DHT22;19997;51.274;22.506;2023-05-07T15:12:39;10.20;85.20
33655;DHT22;19997;51.274;22.506;2023-05-07T15:15:09;10.20;85.10
33655;DHT22;19997;51.274;22.506;2023-05-07T15:17:37;10.20;85.00
33655;DHT22;19997;51.274;22.506;2023-05-07T15:20:08;10.20;84.80
33655;DHT22;19997;51.274;22.506;2023-05-07T15:22:37;10.20;84.50
33655;DHT22;19997;51.274;22.506;2023-05-07T15:25:10;10.20;84.50
33655;DHT22;19997;51.274;22.506;2023-05-07T15:27:38;10.10;84.30
33655;DHT22;19997;51.274;22.506;2023-05-07T15:30:07;10.10;84.40
33655;DHT22;19997;51.274;22.506;2023-05-07T15:32:36;10.00;84.40
33655;DHT22;19997;51.274;22.506;2023-05-07T15:35:04;9.90;84.50
33655;DHT22;19997;51.274;22.506;2023-05-07T15:37:32;9.80;84.60
33655;DHT22;19997;51.274;22.506;2023-05-07T15:39:59;9.80;84.90
33655;DHT22;19997;51.274;22.506;2023-05-07T15:42:29;9.80;85.30